createdAt,value
2019-06-08T00:00:48.663Z,100163.48
2019-06-08T00:03:52.327Z,100180.34
2019-06-08T00:06:56.036Z,100186.26
2019-06-08T00:09:59.708Z,100182.87
2019-06-08T00:13:03.433Z,100188.17
2019-06-08T00:16:07.221Z,100197.44
2019-06-08T00:19:13.189Z,100226.48
2019-06-08T00:22:17.684Z,100211.98
2019-06-08T00:25:22.513Z,100226.50
2019-06-08T00:28:26.329Z,100225.77
2019-06-08T00:31:31.536Z,100236.30
2019-06-08T00:34:35.281Z,100260.05
2019-06-08T00:37:38.953Z,100254.69
2019-06-08T00:40:42.645Z,100256.80
2019-06-08T00:43:46.373Z,100260.44
2019-06-08T00:46:50.096Z,100251.73
2019-06-08T00:49:53.768Z,100243.52
2019-06-08T00:52:57.467Z,100254.45
2019-06-08T00:56:01.212Z,100272.02
2019-06-08T00:59:04.983Z,100275.02
2019-06-08T01:02:08.709Z,100281.69
2019-06-08T01:05:12.828Z,100280.72
2019-06-08T01:08:16.759Z,100264.08
2019-06-08T01:11:20.951Z,100268.79
2019-06-08T01:14:24.923Z,100289.56
2019-06-08T01:17:29.363Z,100323.33
2019-06-08T01:20:33.086Z,100337.17
2019-06-08T01:23:36.734Z,100337.19
2019-06-08T01:26:40.407Z,100312.97
2019-06-08T01:29:44.041Z,100313.04
2019-06-08T01:32:47.885Z,100322.27
2019-06-08T01:35:51.627Z,100318.72
2019-06-08T01:38:55.242Z,100323.64
2019-06-08T01:41:58.938Z,100337.98
2019-06-08T01:45:03.220Z,100360.92
2019-06-08T01:48:19.489Z,100371.38
2019-06-08T01:51:12.964Z,100384.52
2019-06-08T01:54:16.703Z,100397.72
2019-06-08T01:57:20.356Z,100397.94
2019-06-08T02:00:39.676Z,100372.02
2019-06-08T02:03:30.557Z,100360.33
2019-06-08T02:06:34.747Z,100336.66
2019-06-08T02:09:38.435Z,100330.30
2019-06-08T02:12:42.264Z,100328.31
2019-06-08T02:15:45.888Z,100325.27
2019-06-08T02:18:51.263Z,100329.72
2019-06-08T02:21:55.046Z,100326.62
2019-06-08T02:24:58.755Z,100333.08
2019-06-08T02:28:02.580Z,100341.49
2019-06-08T02:31:06.378Z,100333.92
2019-06-08T02:34:10.036Z,100328.58
2019-06-08T02:37:13.721Z,100318.58
2019-06-08T02:40:17.650Z,100328.66
2019-06-08T02:43:21.310Z,100331.28
2019-06-08T02:46:25.023Z,100308.85
2019-06-08T02:49:31.058Z,100313.39
2019-06-08T02:52:38.319Z,100326.40
2019-06-08T02:55:43.468Z,100331.48
2019-06-08T02:58:49.447Z,100337.14
2019-06-08T03:01:55.909Z,100338.63
2019-06-08T03:05:02.906Z,100347.89
2019-06-08T03:08:06.685Z,100343.30
2019-06-08T03:11:10.411Z,100355.30
2019-06-08T03:14:15.343Z,100356.21
2019-06-08T03:17:19.009Z,100355.92
2019-06-08T03:20:22.722Z,100354.63
2019-06-08T03:23:26.367Z,100354.66
2019-06-08T03:26:30.071Z,100353.26
2019-06-08T03:29:34.929Z,100364.24
2019-06-08T03:32:47.162Z,100357.73
2019-06-08T03:35:55.418Z,100351.02
2019-06-08T03:38:50.041Z,100367.61
2019-06-08T03:41:53.678Z,100383.73
2019-06-08T03:44:57.409Z,100398.22
2019-06-08T03:48:01.057Z,100403.37
2019-06-08T03:51:04.883Z,100404.60
2019-06-08T03:54:08.608Z,100411.19
2019-06-08T03:57:12.566Z,100416.80
2019-06-08T04:00:16.350Z,100415.56
2019-06-08T04:03:20.059Z,100413.23
2019-06-08T04:06:23.773Z,100418.70
2019-06-08T04:09:27.505Z,100424.85
2019-06-08T04:12:31.202Z,100432.84
2019-06-08T04:15:34.962Z,100443.98
2019-06-08T04:18:40.233Z,100451.20
2019-06-08T04:21:44.356Z,100450.86
2019-06-08T04:24:48.125Z,100462.73
2019-06-08T04:27:51.820Z,100479.34
2019-06-08T04:30:55.473Z,100469.48
2019-06-08T04:33:59.200Z,100462.97
2019-06-08T04:37:02.910Z,100460.66
2019-06-08T04:40:09.717Z,100469.33
2019-06-08T04:43:13.421Z,100468.23
2019-06-08T04:46:17.123Z,100480.73
2019-06-08T04:49:20.774Z,100481.75
2019-06-08T04:52:24.807Z,100480.86
2019-06-08T04:55:28.493Z,100475.53
2019-06-08T04:58:32.133Z,100482.40
2019-06-08T05:01:35.884Z,100482.50
2019-06-08T05:04:40.928Z,100483.75
2019-06-08T05:07:46.042Z,100510.44
2019-06-08T05:10:50.096Z,100532.23
2019-06-08T05:13:53.747Z,100505.41
2019-06-08T05:16:57.388Z,100479.19
2019-06-08T05:20:01.035Z,100492.75
2019-06-08T05:23:04.772Z,100499.55
2019-06-08T05:26:08.497Z,100479.03
2019-06-08T05:29:12.155Z,100478.15
2019-06-08T05:32:15.814Z,100495.78
2019-06-08T05:35:19.617Z,100480.22
2019-06-08T05:38:23.348Z,100487.83
2019-06-08T05:41:26.986Z,100497.23
2019-06-08T05:44:30.653Z,100500.69
2019-06-08T05:47:34.312Z,100507.56
2019-06-08T05:50:53.043Z,100540.91
2019-06-08T05:53:43.842Z,100532.08
2019-06-08T05:56:47.963Z,100536.66
2019-06-08T05:59:51.762Z,100545.80
2019-06-08T06:02:55.487Z,100539.91
2019-06-08T06:05:59.283Z,100554.91
2019-06-08T06:09:03.431Z,100565.67
2019-06-08T06:12:10.083Z,100583.33
2019-06-08T06:15:14.495Z,100593.09
2019-06-08T06:18:18.149Z,100593.77
2019-06-08T06:21:22.038Z,100598.72
2019-06-08T06:24:25.717Z,100592.06
2019-06-08T06:27:29.492Z,100614.48
2019-06-08T06:30:33.134Z,100605.44
2019-06-08T06:33:36.839Z,100614.88
2019-06-08T06:36:41.577Z,100618.13
2019-06-08T06:39:45.953Z,100627.23
2019-06-08T06:42:50.071Z,100625.20
2019-06-08T06:45:53.814Z,100632.03
2019-06-08T06:48:57.629Z,100649.94
2019-06-08T06:52:01.326Z,100621.49
2019-06-08T06:55:07.574Z,100638.62
2019-06-08T06:58:11.271Z,100650.55
2019-06-08T07:01:15.018Z,100660.30
2019-06-08T07:04:18.735Z,100658.74
2019-06-08T07:07:22.415Z,100675.38
2019-06-08T07:10:26.035Z,100670.38
2019-06-08T07:13:29.759Z,100661.61
2019-06-08T07:16:33.407Z,100663.58
2019-06-08T07:19:37.188Z,100644.97
2019-06-08T07:22:40.830Z,100619.80
2019-06-08T07:25:46.305Z,100612.20
2019-06-08T07:28:52.454Z,100619.46
2019-06-08T07:31:59.223Z,100633.83
2019-06-08T07:35:00.750Z,100649.98
2019-06-08T07:38:04.399Z,100648.93
2019-06-08T07:41:08.117Z,100634.21
2019-06-08T07:44:12.018Z,100632.86
2019-06-08T07:47:15.690Z,100655.42
2019-06-08T07:50:22.412Z,100644.23
2019-06-08T07:53:26.282Z,100648.04
2019-06-08T07:56:30.016Z,100644.29
2019-06-08T07:59:33.708Z,100669.53
2019-06-08T08:02:37.340Z,100662.82
2019-06-08T08:05:41.066Z,100662.16
2019-06-08T08:08:44.778Z,100671.05
2019-06-08T08:11:48.581Z,100668.47
2019-06-08T08:14:53.316Z,100661.63
2019-06-08T08:17:57.709Z,100666.88
2019-06-08T08:21:08.122Z,100662.00
2019-06-08T08:24:07.314Z,100654.16
2019-06-08T08:27:11.062Z,100663.53
2019-06-08T08:30:14.804Z,100661.24
2019-06-08T08:33:18.893Z,100675.98
2019-06-08T08:36:22.621Z,100675.13
2019-06-08T08:39:27.561Z,100685.80
2019-06-08T08:42:31.268Z,100697.26
2019-06-08T08:45:37.216Z,100669.05
2019-06-08T08:48:43.772Z,100684.03
2019-06-08T08:51:47.776Z,100692.06
2019-06-08T08:54:52.372Z,100692.62
2019-06-08T08:58:02.064Z,100710.54
2019-06-08T09:01:08.213Z,100700.56
2019-06-08T09:04:11.553Z,100716.72
2019-06-08T09:07:15.241Z,100716.22
2019-06-08T09:10:19.101Z,100710.25
2019-06-08T09:13:22.720Z,100726.44
2019-06-08T09:16:28.687Z,100717.94
2019-06-08T09:19:31.813Z,100728.03
2019-06-08T09:22:51.981Z,100730.45
2019-06-08T09:25:41.169Z,100724.84
2019-06-08T09:28:44.843Z,100736.35
2019-06-08T09:31:49.059Z,100719.81
2019-06-08T09:34:53.414Z,100717.33
2019-06-08T09:38:01.156Z,100723.25
2019-06-08T09:41:05.315Z,100704.16
2019-06-08T09:44:11.575Z,100710.27
2019-06-08T09:47:14.631Z,100694.13
2019-06-08T09:50:18.736Z,100703.64
2019-06-08T09:53:28.169Z,100718.78
2019-06-08T09:56:28.371Z,100707.37
2019-06-08T09:59:32.198Z,100708.94
2019-06-08T10:02:35.837Z,100730.32
2019-06-08T10:05:39.550Z,100720.28
2019-06-08T10:08:43.245Z,100738.59
2019-06-08T10:11:46.913Z,100753.44
2019-06-08T10:14:50.541Z,100757.03
2019-06-08T10:17:54.811Z,100758.64
2019-06-08T10:21:01.226Z,100747.36
2019-06-08T10:24:06.329Z,100755.68
2019-06-08T10:27:11.559Z,100740.88
2019-06-08T10:30:15.703Z,100731.42
2019-06-08T10:33:19.360Z,100726.62
2019-06-08T10:36:23.035Z,100736.28
2019-06-08T10:39:28.367Z,100742.94
2019-06-08T10:42:32.210Z,100718.03
2019-06-08T10:45:35.974Z,100726.00
2019-06-08T10:48:39.824Z,100721.42
2019-06-08T10:51:43.561Z,100719.34
2019-06-08T10:54:47.226Z,100716.61
2019-06-08T10:57:50.932Z,100715.41
2019-06-08T11:00:54.636Z,100712.74
2019-06-08T11:03:59.560Z,100699.88
2019-06-08T11:07:12.590Z,100712.73
2019-06-08T11:10:12.650Z,100725.93
2019-06-08T11:13:18.696Z,100714.34
2019-06-08T11:16:22.012Z,100710.16
2019-06-08T11:19:26.623Z,100718.61
2019-06-08T11:22:30.564Z,100730.73
2019-06-08T11:25:34.386Z,100732.27
2019-06-08T11:28:41.405Z,100712.52
2019-06-08T11:31:45.307Z,100740.30
2019-06-08T11:34:49.097Z,100745.73
2019-06-08T11:37:52.717Z,100757.62
2019-06-08T11:40:57.481Z,100751.12
2019-06-08T11:44:03.453Z,100746.97
2019-06-08T11:47:09.757Z,100751.45
2019-06-08T11:50:13.375Z,100741.41
2019-06-08T11:53:18.166Z,100735.33
2019-06-08T11:56:22.477Z,100741.10
2019-06-08T11:59:28.524Z,100753.64
2019-06-08T12:02:32.263Z,100762.19
2019-06-08T12:05:35.949Z,100760.50
2019-06-08T12:08:39.612Z,100757.34
2019-06-08T12:11:43.331Z,100757.56
2019-06-08T12:14:47.623Z,100761.65
2019-06-08T12:17:51.414Z,100758.45
2019-06-08T12:20:55.070Z,100769.09
2019-06-08T12:23:58.830Z,100769.88
2019-06-08T12:27:10.139Z,100761.23
2019-06-08T12:30:16.513Z,100755.86
2019-06-08T12:33:15.305Z,100760.30
2019-06-08T12:36:20.782Z,100773.57
2019-06-08T12:39:24.337Z,100771.95
2019-06-08T12:42:28.367Z,100774.44
2019-06-08T12:45:32.178Z,100772.72
2019-06-08T12:48:35.815Z,100769.74
2019-06-08T12:51:39.650Z,100775.55
2019-06-08T12:54:56.548Z,100776.77
2019-06-08T12:57:51.427Z,100784.61
2019-06-08T13:00:54.184Z,100783.13
2019-06-08T13:03:58.248Z,100791.08
2019-06-08T13:07:01.966Z,100797.05
2019-06-08T13:10:07.290Z,100797.98
2019-06-08T13:13:11.504Z,100782.02
2019-06-08T13:16:19.702Z,100800.56
2019-06-08T13:19:21.746Z,100806.34
2019-06-08T13:22:28.989Z,100798.47
2019-06-08T13:25:40.176Z,100799.67
2019-06-08T13:28:39.388Z,100797.97
2019-06-08T13:31:43.089Z,100803.13
2019-06-08T13:34:47.344Z,100804.91
2019-06-08T13:37:52.128Z,100801.46
2019-06-08T13:40:58.572Z,100804.64
2019-06-08T13:44:01.188Z,100811.70
2019-06-08T13:47:04.931Z,100811.47
2019-06-08T13:50:11.006Z,100814.66
2019-06-08T13:53:17.919Z,100802.98
2019-06-08T13:56:22.394Z,100799.78
2019-06-08T13:59:30.779Z,100820.42
2019-06-08T14:02:34.896Z,100821.09
2019-06-08T14:05:39.116Z,100804.55
2019-06-08T14:08:49.588Z,100799.58
2019-06-08T14:11:52.490Z,100805.84
2019-06-08T14:14:58.387Z,100815.91
2019-06-08T14:18:03.643Z,100808.69
2019-06-08T14:21:08.265Z,100808.80
2019-06-08T14:24:11.907Z,100812.45
2019-06-08T14:27:15.620Z,100832.73
2019-06-08T14:30:20.839Z,100807.92
2019-06-08T14:33:29.144Z,100812.77
2019-06-08T14:36:30.445Z,100817.73
2019-06-08T14:39:34.206Z,100817.59
2019-06-08T14:42:38.347Z,100790.92
2019-06-08T14:45:42.329Z,100809.17
2019-06-08T14:48:45.983Z,100811.88
2019-06-08T14:51:49.997Z,100817.10
2019-06-08T14:54:58.670Z,100806.34
2019-06-08T14:58:03.872Z,100808.50
2019-06-08T15:01:08.035Z,100811.20
2019-06-08T15:04:11.945Z,100809.32
2019-06-08T15:07:20.136Z,100801.80
2019-06-08T15:10:21.752Z,100808.31
2019-06-08T15:13:28.194Z,100814.40
2019-06-08T15:16:32.860Z,100809.94
2019-06-08T15:19:36.674Z,100812.56
2019-06-08T15:22:40.345Z,100800.64
2019-06-08T15:25:44.174Z,100805.89
2019-06-08T15:28:48.586Z,100809.05
2019-06-08T15:31:52.320Z,100803.84
2019-06-08T15:34:57.761Z,100801.43
2019-06-08T15:38:01.524Z,100809.19
2019-06-08T15:41:05.145Z,100813.39
2019-06-08T15:44:08.997Z,100822.09
2019-06-08T15:47:15.111Z,100815.23
2019-06-08T15:50:22.260Z,100821.22
2019-06-08T15:53:24.555Z,100816.52
2019-06-08T15:56:41.745Z,100824.78
2019-06-08T15:59:41.583Z,100831.13
2019-06-08T16:02:45.044Z,100824.48
2019-06-08T16:05:48.708Z,100823.70
2019-06-08T16:08:52.475Z,100820.25
2019-06-08T16:11:59.446Z,100827.08
2019-06-08T16:15:01.517Z,100820.44
2019-06-08T16:18:05.219Z,100821.98
2019-06-08T16:21:08.852Z,100827.68
2019-06-08T16:24:12.539Z,100810.88
2019-06-08T16:27:16.161Z,100813.92
2019-06-08T16:30:19.970Z,100806.64
2019-06-08T16:33:23.650Z,100808.19
2019-06-08T16:36:27.400Z,100820.67
2019-06-08T16:39:31.086Z,100813.55
2019-06-08T16:42:36.878Z,100815.00
2019-06-08T16:45:43.489Z,100824.46
2019-06-08T16:48:47.302Z,100817.09
2019-06-08T16:51:50.960Z,100816.27
2019-06-08T16:54:54.601Z,100824.39
2019-06-08T16:57:58.283Z,100822.06
2019-06-08T17:01:01.977Z,100826.38
2019-06-08T17:04:05.795Z,100842.35
2019-06-08T17:07:09.437Z,100824.43
2019-06-08T17:10:13.169Z,100823.41
2019-06-08T17:13:19.144Z,100824.08
2019-06-08T17:16:24.472Z,100829.92
2019-06-08T17:19:28.145Z,100831.16
2019-06-08T17:22:34.487Z,100827.27
2019-06-08T17:25:38.745Z,100829.78
2019-06-08T17:28:42.516Z,100836.30
2019-06-08T17:31:46.148Z,100832.44
2019-06-08T17:34:49.802Z,100828.84
2019-06-08T17:37:53.472Z,100832.09
2019-06-08T17:40:57.193Z,100829.03
2019-06-08T17:44:00.856Z,100826.95
2019-06-08T17:47:04.625Z,100834.31
2019-06-08T17:50:09.508Z,100834.82
2019-06-08T17:53:13.142Z,100836.50
2019-06-08T17:56:16.861Z,100845.76
2019-06-08T17:59:20.572Z,100845.31
2019-06-08T18:02:28.264Z,100844.54
2019-06-08T18:05:29.774Z,100851.91
2019-06-08T18:08:33.799Z,100851.55
2019-06-08T18:11:40.498Z,100854.62
2019-06-08T18:14:45.155Z,100862.02
2019-06-08T18:17:50.922Z,100861.86
2019-06-08T18:20:54.693Z,100866.45
2019-06-08T18:23:58.442Z,100874.69
2019-06-08T18:27:02.172Z,100876.31
2019-06-08T18:30:08.958Z,100886.34
2019-06-08T18:33:12.919Z,100888.63
2019-06-08T18:36:17.434Z,100894.00
2019-06-08T18:39:21.246Z,100892.28
2019-06-08T18:42:26.890Z,100899.69
2019-06-08T18:45:30.645Z,100898.12
2019-06-08T18:48:39.821Z,100902.93
2019-06-08T18:51:45.351Z,100911.33
2019-06-08T18:54:57.718Z,100916.62
2019-06-08T18:57:59.674Z,100915.93
2019-06-08T19:01:03.484Z,100910.52
2019-06-08T19:04:07.697Z,100917.13
2019-06-08T19:07:11.539Z,100919.91
2019-06-08T19:10:18.255Z,100928.25
2019-06-08T19:13:22.429Z,100936.47
2019-06-08T19:16:28.149Z,100947.98
2019-06-08T19:19:31.724Z,100951.17
2019-06-08T19:22:38.463Z,100948.29
2019-06-08T19:25:43.987Z,100955.22
2019-06-08T19:28:52.533Z,100959.70
2019-06-08T19:31:51.707Z,100966.78
2019-06-08T19:34:57.788Z,100965.80
2019-06-08T19:38:00.877Z,100977.52
2019-06-08T19:41:04.775Z,100979.31
2019-06-08T19:44:08.508Z,100978.50
2019-06-08T19:47:12.341Z,100982.50
2019-06-08T19:50:17.339Z,100987.09
2019-06-08T19:53:21.049Z,100992.92
2019-06-08T19:56:24.711Z,101000.14
2019-06-08T19:59:41.532Z,100998.77
2019-06-08T20:02:51.949Z,101005.42
2019-06-08T20:06:07.554Z,101001.59
2019-06-08T20:09:11.799Z,101004.20
2019-06-08T20:12:21.874Z,101006.95
2019-06-08T20:16:18.299Z,101012.16
2019-06-08T20:19:03.735Z,101021.97
2019-06-08T20:22:09.927Z,101022.88
2019-06-08T20:25:17.756Z,101024.31
2019-06-08T20:28:28.274Z,101024.06
2019-06-08T20:31:33.649Z,101024.95
2019-06-08T20:34:38.189Z,101028.86
2019-06-08T20:37:43.597Z,101027.09
2019-06-08T20:40:50.206Z,101033.66
2019-06-08T20:43:58.173Z,101038.13
2019-06-08T20:47:01.800Z,101038.67
2019-06-08T20:50:27.099Z,101042.41
2019-06-08T20:53:28.128Z,101039.56
2019-06-08T20:56:30.892Z,101048.58
2019-06-08T20:59:34.709Z,101048.58
2019-06-08T21:02:38.329Z,101051.38
2019-06-08T21:05:41.999Z,101053.64
2019-06-08T21:08:46.587Z,101051.11
2019-06-08T21:12:17.793Z,101047.43
2019-06-08T21:15:29.362Z,101054.56
2019-06-08T21:18:55.034Z,101058.62
2019-06-08T21:22:13.564Z,101054.98
2019-06-08T21:25:37.361Z,101048.95
2019-06-08T21:28:49.822Z,101056.04
2019-06-08T21:31:52.342Z,101057.63
2019-06-08T21:42:02.915Z,101057.02
2019-06-08T21:45:09.953Z,101052.57
2019-06-08T21:48:13.728Z,101048.20
2019-06-08T21:51:26.108Z,101047.69
2019-06-08T21:54:28.281Z,101051.70
2019-06-08T21:57:31.915Z,101046.86
2019-06-08T22:00:42.712Z,101056.32
2019-06-08T22:03:47.170Z,101048.38
2019-06-08T22:06:51.977Z,101055.89
2019-06-08T22:09:58.755Z,101054.44
2019-06-08T22:13:01.291Z,101060.98
2019-06-08T22:16:07.745Z,101055.91
2019-06-08T22:19:10.648Z,101051.09
2019-06-08T22:22:14.276Z,101055.52
2019-06-08T22:25:18.027Z,101055.53
2019-06-08T22:28:21.716Z,101056.95
2019-06-08T22:31:27.728Z,101054.84
2019-06-08T22:34:31.168Z,101063.10
2019-06-08T22:37:34.872Z,101060.02
2019-06-08T22:40:38.543Z,101063.63
2019-06-08T22:43:42.246Z,101061.84
2019-06-08T22:46:48.739Z,101065.44
2019-06-08T22:49:53.724Z,101067.64
2019-06-08T22:52:59.460Z,101066.27
2019-06-08T22:56:04.441Z,101064.37
2019-06-08T22:59:09.235Z,101065.22
2019-06-08T23:02:18.252Z,101078.33
2019-06-08T23:05:21.910Z,101067.88
2019-06-08T23:08:25.634Z,101074.95
2019-06-08T23:11:29.309Z,101062.67
2019-06-08T23:14:37.538Z,101077.67
2019-06-08T23:17:40.732Z,101078.52
2019-06-08T23:20:44.420Z,101082.30
2019-06-08T23:23:48.060Z,101075.78
2019-06-08T23:26:54.078Z,101072.91
2019-06-08T23:29:59.091Z,101071.97
2019-06-08T23:33:05.558Z,101070.09
2019-06-08T23:36:39.504Z,101076.95
2019-06-08T23:39:20.238Z,101077.98
2019-06-08T23:42:23.918Z,101084.02
2019-06-08T23:45:27.625Z,101083.68
2019-06-08T23:48:37.473Z,101088.09
2019-06-08T23:51:47.728Z,101093.82
2019-06-08T23:54:50.216Z,101102.67
2019-06-08T23:57:58.679Z,101098.00
